메인 페이지
METAR-TAF:

METAR-TAF

공항 :

라스베이거스, 네바다, 미국

매캐런 국제공항

위도: 36-04-44N, 경도: 115-09-19W, 고도: 663m

현재 날씨관측

예보는 1 시간 8분 전, 03:56시(UTC)에 발표되었습니다.
4kt
온도 16°C
습도 39%
기압 1009 hPa
시정: 16.1km
고도 10000ft 상공 구름 보통
고도 20000ft 상공 구름 많음
고도 25000ft 상공 구름 많음

METAR: KLAS 200356Z 18004KT 10SM SCT100 BKN200 BKN250 16/02 A2979 RMK AO2 SLP078 T01560022

시각: 21:04 (05:04 UTC)

예보

예보는 2 시간 16분 전, 02:48시(UTC)에 발표되었습니다.
예보 대상 시간: 20일 03시부터 21일 06시까지 (UTC)
남남서13kt
시정: 10km
고도 10000ft 상공 구름 조금
고도 20000ft 상공 구름 보통
고도 25000ft 상공 구름 많음
20일 0700시부터 (UTC)
서남서14kt
시정: 10km
고도 7000ft 상공 구름 보통
고도 12000ft 상공 구름 많음
20일 1200시부터 (UTC)
10kt
시정: 10km
고도 10000ft 상공 구름 보통
고도 20000ft 상공 구름 보통
20일 1800시부터 (UTC)
북북서17kt, 순간 최대 풍속 26kt
시정: 10km
고도 10000ft 상공 구름 보통
고도 15000ft 상공 구름 많음
21일 0100시부터 (UTC)
12kt
시정: 10km
고도 25000ft 상공 구름 보통

TAF: KLAS 200248Z 2003/2106 20013KT P6SM FEW100 SCT200 BKN250 FM200700 24014KT P6SM SCT070 BKN120 FM201200 26010KT P6SM SCT100 SCT200 FM201800 33017G26KT P6SM SCT100 BKN150 FM210100 35012KT P6SM SCT250

4,000개 이상의 공항 관측 자료 및 예보 (METAR 및 TAF 보고).

지도상에서 검색 가능한 기상관측소가 노란 점과 빨간 점으로 표시되어 있습니다.

기상관측소 명을 보려면 표시 위로 마우스를 이동하세요.

날씨 관측과 예보를 보려면 클릭하세요.

지도 변경 : 확대하려면 엑스 표시가 있는 녹색 버튼, 축소하려면 빼기 표시가 있는 녹색 버튼, 다음 페이지의 지도를 보려면 녹색 화살표를 클릭하세요.


METAR-TAF: